sensor_id;sensor_type;location;lat;lon;timestamp;P1;durP1;ratioP1;P2;durP2;ratioP2
82806;SDS011;72563;44.816;20.484;2023-09-19T00:01:12;6.25;;;3.10;;
82806;SDS011;72563;44.816;20.484;2023-09-19T00:03:38;6.25;;;2.83;;
82806;SDS011;72563;44.816;20.484;2023-09-19T00:06:04;7.22;;;2.83;;
82806;SDS011;72563;44.816;20.484;2023-09-19T00:08:32;9.77;;;2.72;;
82806;SDS011;72563;44.816;20.484;2023-09-19T00:10:58;6.75;;;2.78;;
82806;SDS011;72563;44.816;20.484;2023-09-19T00:13:31;6.35;;;2.60;;
82806;SDS011;72563;44.816;20.484;2023-09-19T00:15:57;6.05;;;2.90;;
82806;SDS011;72563;44.816;20.484;2023-09-19T00:18:24;9.02;;;2.80;;
82806;SDS011;72563;44.816;20.484;2023-09-19T00:20:57;6.63;;;2.50;;
82806;SDS011;72563;44.816;20.484;2023-09-19T00:23:23;7.30;;;2.90;;
82806;SDS011;72563;44.816;20.484;2023-09-19T00:25:49;7.22;;;2.70;;
82806;SDS011;72563;44.816;20.484;2023-09-19T00:28:16;9.15;;;2.90;;
82806;SDS011;72563;44.816;20.484;2023-09-19T00:30:43;6.43;;;2.72;;
82806;SDS011;72563;44.816;20.484;2023-09-19T00:33:09;6.18;;;2.42;;
82806;SDS011;72563;44.816;20.484;2023-09-19T00:35:36;6.90;;;2.70;;
82806;SDS011;72563;44.816;20.484;2023-09-19T00:38:02;6.10;;;2.92;;
82806;SDS011;72563;44.816;20.484;2023-09-19T00:40:28;7.63;;;3.00;;
82806;SDS011;72563;44.816;20.484;2023-09-19T00:42:57;8.50;;;2.85;;
82806;SDS011;72563;44.816;20.484;2023-09-19T00:45:25;8.00;;;3.05;;
82806;SDS011;72563;44.816;20.484;2023-09-19T00:47:51;7.20;;;3.03;;
82806;SDS011;72563;44.816;20.484;2023-09-19T00:50:17;5.80;;;2.60;;
82806;SDS011;72563;44.816;20.484;2023-09-19T00:52:46;7.35;;;2.70;;
82806;SDS011;72563;44.816;20.484;2023-09-19T00:55:14;9.20;;;2.78;;
82806;SDS011;72563;44.816;20.484;2023-09-19T00:57:41;7.60;;;3.13;;
82806;SDS011;72563;44.816;20.484;2023-09-19T01:00:08;8.55;;;3.47;;
82806;SDS011;72563;44.816;20.484;2023-09-19T01:02:37;6.80;;;3.10;;
82806;SDS011;72563;44.816;20.484;2023-09-19T01:05:03;6.07;;;2.58;;
82806;SDS011;72563;44.816;20.484;2023-09-19T01:07:31;7.47;;;2.83;;
82806;SDS011;72563;44.816;20.484;2023-09-19T01:09:58;6.35;;;2.90;;
82806;SDS011;72563;44.816;20.484;2023-09-19T01:12:30;7.25;;;3.33;;
82806;SDS011;72563;44.816;20.484;2023-09-19T01:17:49;6.75;;;3.30;;
82806;SDS011;72563;44.816;20.484;2023-09-19T01:20:39;8.15;;;3.22;;
82806;SDS011;72563;44.816;20.484;2023-09-19T01:26:07;6.10;;;2.80;;
82806;SDS011;72563;44.816;20.484;2023-09-19T01:31:24;6.28;;;2.85;;
82806;SDS011;72563;44.816;20.484;2023-09-19T01:33:54;8.55;;;3.08;;
82806;SDS011;72563;44.816;20.484;2023-09-19T01:36:29;6.07;;;3.00;;
82806;SDS011;72563;44.816;20.484;2023-09-19T01:47:41;6.72;;;3.13;;
82806;SDS011;72563;44.816;20.484;2023-09-19T01:52:48;6.97;;;2.80;;
82806;SDS011;72563;44.816;20.484;2023-09-19T01:55:20;5.72;;;2.60;;
82806;SDS011;72563;44.816;20.484;2023-09-19T02:00:42;7.55;;;3.00;;
82806;SDS011;72563;44.816;20.484;2023-09-19T02:03:10;7.18;;;2.70;;
82806;SDS011;72563;44.816;20.484;2023-09-19T02:05:37;6.20;;;2.80;;
82806;SDS011;72563;44.816;20.484;2023-09-19T02:08:04;6.32;;;2.70;;
82806;SDS011;72563;44.816;20.484;2023-09-19T02:10:30;6.32;;;2.95;;
82806;SDS011;72563;44.816;20.484;2023-09-19T02:12:56;7.05;;;2.75;;
82806;SDS011;72563;44.816;20.484;2023-09-19T02:15:21;6.82;;;3.13;;
82806;SDS011;72563;44.816;20.484;2023-09-19T02:17:47;6.88;;;3.00;;
82806;SDS011;72563;44.816;20.484;2023-09-19T02:20:12;6.97;;;3.00;;
82806;SDS011;72563;44.816;20.484;2023-09-19T02:22:42;6.50;;;3.08;;
82806;SDS011;72563;44.816;20.484;2023-09-19T02:25:09;6.45;;;3.25;;
82806;SDS011;72563;44.816;20.484;2023-09-19T02:27:34;6.07;;;2.92;;
82806;SDS011;72563;44.816;20.484;2023-09-19T02:30:00;6.25;;;3.08;;
82806;SDS011;72563;44.816;20.484;2023-09-19T02:32:29;6.95;;;3.17;;
82806;SDS011;72563;44.816;20.484;2023-09-19T02:34:56;7.25;;;3.10;;
82806;SDS011;72563;44.816;20.484;2023-09-19T02:37:26;6.40;;;2.85;;
82806;SDS011;72563;44.816;20.484;2023-09-19T02:39:51;7.78;;;2.90;;
82806;SDS011;72563;44.816;20.484;2023-09-19T02:42:17;6.43;;;3.10;;
82806;SDS011;72563;44.816;20.484;2023-09-19T02:44:43;7.90;;;3.40;;
82806;SDS011;72563;44.816;20.484;2023-09-19T02:47:11;7.15;;;3.00;;
82806;SDS011;72563;44.816;20.484;2023-09-19T02:49:37;6.68;;;3.03;;
82806;SDS011;72563;44.816;20.484;2023-09-19T02:52:03;7.28;;;3.20;;
82806;SDS011;72563;44.816;20.484;2023-09-19T02:54:29;8.30;;;3.30;;
82806;SDS011;72563;44.816;20.484;2023-09-19T02:56:54;7.03;;;3.20;;
82806;SDS011;72563;44.816;20.484;2023-09-19T02:59:20;6.55;;;2.85;;
82806;SDS011;72563;44.816;20.484;2023-09-19T03:01:46;6.78;;;2.90;;
82806;SDS011;72563;44.816;20.484;2023-09-19T03:04:13;5.97;;;2.80;;
82806;SDS011;72563;44.816;20.484;2023-09-19T03:06:42;6.88;;;3.25;;
82806;SDS011;72563;44.816;20.484;2023-09-19T03:09:10;6.90;;;3.33;;
82806;SDS011;72563;44.816;20.484;2023-09-19T03:11:36;7.32;;;3.08;;
82806;SDS011;72563;44.816;20.484;2023-09-19T03:14:02;6.10;;;2.85;;
82806;SDS011;72563;44.816;20.484;2023-09-19T03:16:28;7.60;;;3.08;;
82806;SDS011;72563;44.816;20.484;2023-09-19T03:18:53;9.10;;;3.65;;
82806;SDS011;72563;44.816;20.484;2023-09-19T03:21:18;7.75;;;3.30;;
82806;SDS011;72563;44.816;20.484;2023-09-19T03:23:44;6.82;;;3.25;;
82806;SDS011;72563;44.816;20.484;2023-09-19T03:26:11;6.35;;;3.30;;
82806;SDS011;72563;44.816;20.484;2023-09-19T03:28:41;7.57;;;3.33;;
82806;SDS011;72563;44.816;20.484;2023-09-19T03:31:08;8.70;;;3.38;;
82806;SDS011;72563;44.816;20.484;2023-09-19T03:33:34;7.70;;;3.10;;
82806;SDS011;72563;44.816;20.484;2023-09-19T03:36:00;9.38;;;3.75;;
82806;SDS011;72563;44.816;20.484;2023-09-19T03:38:29;6.63;;;3.20;;
82806;SDS011;72563;44.816;20.484;2023-09-19T03:40:56;6.80;;;3.42;;
82806;SDS011;72563;44.816;20.484;2023-09-19T03:43:22;6.03;;;3.17;;
82806;SDS011;72563;44.816;20.484;2023-09-19T03:45:47;6.93;;;3.13;;
82806;SDS011;72563;44.816;20.484;2023-09-19T03:48:13;7.22;;;3.42;;
82806;SDS011;72563;44.816;20.484;2023-09-19T03:50:39;8.15;;;3.22;;
82806;SDS011;72563;44.816;20.484;2023-09-19T03:53:05;5.82;;;3.00;;
82806;SDS011;72563;44.816;20.484;2023-09-19T03:57:57;5.97;;;3.22;;
82806;SDS011;72563;44.816;20.484;2023-09-19T04:00:23;6.50;;;3.10;;
82806;SDS011;72563;44.816;20.484;2023-09-19T04:02:52;7.03;;;3.15;;
82806;SDS011;72563;44.816;20.484;2023-09-19T04:05:18;8.93;;;3.22;;
82806;SDS011;72563;44.816;20.484;2023-09-19T04:07:44;8.38;;;3.58;;
82806;SDS011;72563;44.816;20.484;2023-09-19T04:10:09;8.23;;;3.53;;
82806;SDS011;72563;44.816;20.484;2023-09-19T04:12:36;7.63;;;2.97;;
82806;SDS011;72563;44.816;20.484;2023-09-19T04:15:03;12.10;;;3.55;;
82806;SDS011;72563;44.816;20.484;2023-09-19T04:17:30;8.05;;;3.20;;
82806;SDS011;72563;44.816;20.484;2023-09-19T04:19:58;8.32;;;3.20;;
82806;SDS011;72563;44.816;20.484;2023-09-19T04:22:23;6.50;;;3.20;;
82806;SDS011;72563;44.816;20.484;2023-09-19T04:24:49;6.95;;;3.58;;
82806;SDS011;72563;44.816;20.484;2023-09-19T04:27:14;8.32;;;3.42;;
82806;SDS011;72563;44.816;20.484;2023-09-19T04:29:40;7.38;;;3.35;;
82806;SDS011;72563;44.816;20.484;2023-09-19T04:32:06;6.60;;;3.20;;
82806;SDS011;72563;44.816;20.484;2023-09-19T04:34:32;6.53;;;3.25;;
82806;SDS011;72563;44.816;20.484;2023-09-19T04:36:59;7.93;;;3.50;;
82806;SDS011;72563;44.816;20.484;2023-09-19T04:39:26;7.40;;;3.58;;
82806;SDS011;72563;44.816;20.484;2023-09-19T04:41:52;7.03;;;3.25;;
82806;SDS011;72563;44.816;20.484;2023-09-19T04:44:18;6.88;;;3.42;;
82806;SDS011;72563;44.816;20.484;2023-09-19T04:46:44;7.20;;;3.42;;
82806;SDS011;72563;44.816;20.484;2023-09-19T04:49:11;9.05;;;3.67;;
82806;SDS011;72563;44.816;20.484;2023-09-19T04:51:37;7.88;;;4.00;;
82806;SDS011;72563;44.816;20.484;2023-09-19T04:54:03;8.02;;;3.90;;
82806;SDS011;72563;44.816;20.484;2023-09-19T04:56:28;6.65;;;3.55;;
82806;SDS011;72563;44.816;20.484;2023-09-19T04:58:54;7.50;;;3.50;;
82806;SDS011;72563;44.816;20.484;2023-09-19T05:01:19;8.20;;;3.92;;
82806;SDS011;72563;44.816;20.484;2023-09-19T05:03:48;6.35;;;3.35;;
82806;SDS011;72563;44.816;20.484;2023-09-19T05:06:17;8.02;;;3.85;;
82806;SDS011;72563;44.816;20.484;2023-09-19T05:08:46;7.88;;;3.75;;
82806;SDS011;72563;44.816;20.484;2023-09-19T05:11:20;7.38;;;3.67;;
82806;SDS011;72563;44.816;20.484;2023-09-19T05:13:49;7.78;;;3.90;;
82806;SDS011;72563;44.816;20.484;2023-09-19T05:16:15;8.27;;;3.83;;
82806;SDS011;72563;44.816;20.484;2023-09-19T05:18:41;7.03;;;3.65;;
82806;SDS011;72563;44.816;20.484;2023-09-19T05:21:07;7.55;;;3.55;;
82806;SDS011;72563;44.816;20.484;2023-09-19T05:23:33;7.10;;;3.30;;
82806;SDS011;72563;44.816;20.484;2023-09-19T05:25:59;7.97;;;3.90;;
82806;SDS011;72563;44.816;20.484;2023-09-19T05:28:26;7.63;;;3.80;;
82806;SDS011;72563;44.816;20.484;2023-09-19T05:30:52;7.57;;;3.85;;
82806;SDS011;72563;44.816;20.484;2023-09-19T05:33:18;9.70;;;4.63;;
82806;SDS011;72563;44.816;20.484;2023-09-19T05:35:44;8.48;;;4.13;;
82806;SDS011;72563;44.816;20.484;2023-09-19T05:38:12;8.73;;;3.72;;
82806;SDS011;72563;44.816;20.484;2023-09-19T05:40:38;8.63;;;4.68;;
82806;SDS011;72563;44.816;20.484;2023-09-19T05:43:07;8.50;;;4.78;;
82806;SDS011;72563;44.816;20.484;2023-09-19T05:45:33;9.80;;;4.57;;
82806;SDS011;72563;44.816;20.484;2023-09-19T05:48:07;9.30;;;4.90;;
82806;SDS011;72563;44.816;20.484;2023-09-19T05:50:33;9.35;;;4.57;;
82806;SDS011;72563;44.816;20.484;2023-09-19T05:52:59;8.80;;;4.68;;
82806;SDS011;72563;44.816;20.484;2023-09-19T05:55:24;8.05;;;4.30;;
82806;SDS011;72563;44.816;20.484;2023-09-19T05:57:51;9.02;;;5.00;;
82806;SDS011;72563;44.816;20.484;2023-09-19T06:00:21;9.50;;;4.53;;
82806;SDS011;72563;44.816;20.484;2023-09-19T06:02:54;9.88;;;4.70;;
82806;SDS011;72563;44.816;20.484;2023-09-19T06:05:22;9.15;;;4.93;;
82806;SDS011;72563;44.816;20.484;2023-09-19T06:07:48;9.27;;;4.35;;
82806;SDS011;72563;44.816;20.484;2023-09-19T06:10:13;9.50;;;4.43;;
82806;SDS011;72563;44.816;20.484;2023-09-19T06:12:40;10.10;;;4.25;;
82806;SDS011;72563;44.816;20.484;2023-09-19T06:15:10;9.38;;;5.00;;
82806;SDS011;72563;44.816;20.484;2023-09-19T06:17:41;10.13;;;6.15;;
82806;SDS011;72563;44.816;20.484;2023-09-19T06:20:07;8.98;;;4.65;;
82806;SDS011;72563;44.816;20.484;2023-09-19T06:22:42;8.73;;;5.03;;
82806;SDS011;72563;44.816;20.484;2023-09-19T06:25:09;9.23;;;5.07;;
82806;SDS011;72563;44.816;20.484;2023-09-19T06:27:37;8.57;;;3.92;;
82806;SDS011;72563;44.816;20.484;2023-09-19T06:30:09;10.00;;;4.65;;
82806;SDS011;72563;44.816;20.484;2023-09-19T06:32:36;9.57;;;5.15;;
82806;SDS011;72563;44.816;20.484;2023-09-19T06:35:02;9.38;;;5.63;;
82806;SDS011;72563;44.816;20.484;2023-09-19T06:37:28;9.82;;;5.57;;
82806;SDS011;72563;44.816;20.484;2023-09-19T06:39:54;10.27;;;6.10;;
82806;SDS011;72563;44.816;20.484;2023-09-19T06:42:19;9.07;;;4.65;;
82806;SDS011;72563;44.816;20.484;2023-09-19T06:44:47;11.50;;;5.75;;
82806;SDS011;72563;44.816;20.484;2023-09-19T06:47:13;10.30;;;6.07;;
82806;SDS011;72563;44.816;20.484;2023-09-19T06:49:41;8.45;;;5.07;;
82806;SDS011;72563;44.816;20.484;2023-09-19T06:52:09;9.07;;;5.43;;
82806;SDS011;72563;44.816;20.484;2023-09-19T06:54:34;8.43;;;4.65;;
82806;SDS011;72563;44.816;20.484;2023-09-19T06:57:01;10.25;;;5.35;;
82806;SDS011;72563;44.816;20.484;2023-09-19T06:59:26;10.50;;;4.93;;
82806;SDS011;72563;44.816;20.484;2023-09-19T07:01:52;8.35;;;4.43;;
82806;SDS011;72563;44.816;20.484;2023-09-19T07:04:18;11.65;;;6.32;;
82806;SDS011;72563;44.816;20.484;2023-09-19T07:06:50;9.73;;;5.95;;
82806;SDS011;72563;44.816;20.484;2023-09-19T07:09:15;9.23;;;5.07;;
82806;SDS011;72563;44.816;20.484;2023-09-19T07:11:41;9.77;;;5.05;;
82806;SDS011;72563;44.816;20.484;2023-09-19T07:14:07;8.68;;;4.82;;
82806;SDS011;72563;44.816;20.484;2023-09-19T07:16:36;8.70;;;4.90;;
82806;SDS011;72563;44.816;20.484;2023-09-19T07:19:04;15.20;;;6.00;;
82806;SDS011;72563;44.816;20.484;2023-09-19T07:21:30;9.75;;;5.50;;
82806;SDS011;72563;44.816;20.484;2023-09-19T07:23:55;9.10;;;4.53;;
82806;SDS011;72563;44.816;20.484;2023-09-19T07:26:21;8.18;;;4.72;;
82806;SDS011;72563;44.816;20.484;2023-09-19T07:28:46;9.30;;;4.80;;
82806;SDS011;72563;44.816;20.484;2023-09-19T07:31:12;10.35;;;5.45;;
82806;SDS011;72563;44.816;20.484;2023-09-19T07:33:39;7.88;;;4.65;;
82806;SDS011;72563;44.816;20.484;2023-09-19T07:36:05;9.65;;;5.13;;
82806;SDS011;72563;44.816;20.484;2023-09-19T07:38:31;9.88;;;4.95;;
82806;SDS011;72563;44.816;20.484;2023-09-19T07:41:00;10.50;;;5.03;;
82806;SDS011;72563;44.816;20.484;2023-09-19T07:43:27;13.63;;;6.13;;
82806;SDS011;72563;44.816;20.484;2023-09-19T07:45:53;12.57;;;5.75;;
82806;SDS011;72563;44.816;20.484;2023-09-19T07:48:18;9.38;;;4.90;;
82806;SDS011;72563;44.816;20.484;2023-09-19T07:50:44;9.10;;;5.05;;
82806;SDS011;72563;44.816;20.484;2023-09-19T07:53:09;8.98;;;4.80;;
82806;SDS011;72563;44.816;20.484;2023-09-19T07:55:38;10.13;;;5.38;;
82806;SDS011;72563;44.816;20.484;2023-09-19T07:58:04;10.70;;;5.07;;
82806;SDS011;72563;44.816;20.484;2023-09-19T08:00:32;11.30;;;5.47;;
82806;SDS011;72563;44.816;20.484;2023-09-19T08:02:59;8.82;;;4.57;;
82806;SDS011;72563;44.816;20.484;2023-09-19T08:05:26;9.80;;;4.90;;
82806;SDS011;72563;44.816;20.484;2023-09-19T08:07:52;10.50;;;5.72;;
82806;SDS011;72563;44.816;20.484;2023-09-19T08:10:21;10.18;;;5.43;;
82806;SDS011;72563;44.816;20.484;2023-09-19T08:12:47;10.15;;;4.65;;
82806;SDS011;72563;44.816;20.484;2023-09-19T08:15:14;11.13;;;5.55;;
82806;SDS011;72563;44.816;20.484;2023-09-19T08:17:41;8.38;;;5.10;;
82806;SDS011;72563;44.816;20.484;2023-09-19T08:20:07;11.77;;;5.20;;
82806;SDS011;72563;44.816;20.484;2023-09-19T08:22:42;11.15;;;5.40;;
82806;SDS011;72563;44.816;20.484;2023-09-19T08:25:20;10.65;;;5.30;;
82806;SDS011;72563;44.816;20.484;2023-09-19T08:27:47;9.70;;;5.28;;
82806;SDS011;72563;44.816;20.484;2023-09-19T08:30:15;9.52;;;5.32;;
82806;SDS011;72563;44.816;20.484;2023-09-19T08:32:41;11.02;;;5.78;;
82806;SDS011;72563;44.816;20.484;2023-09-19T08:35:11;9.20;;;5.30;;
82806;SDS011;72563;44.816;20.484;2023-09-19T08:37:36;9.52;;;4.95;;
82806;SDS011;72563;44.816;20.484;2023-09-19T08:40:02;10.32;;;5.45;;
82806;SDS011;72563;44.816;20.484;2023-09-19T08:42:28;12.25;;;5.18;;
82806;SDS011;72563;44.816;20.484;2023-09-19T08:44:54;11.52;;;5.13;;
82806;SDS011;72563;44.816;20.484;2023-09-19T08:47:28;8.73;;;5.03;;
82806;SDS011;72563;44.816;20.484;2023-09-19T08:52:42;12.73;;;5.65;;
82806;SDS011;72563;44.816;20.484;2023-09-19T08:55:12;9.43;;;5.20;;
82806;SDS011;72563;44.816;20.484;2023-09-19T08:57:45;10.30;;;5.32;;
82806;SDS011;72563;44.816;20.484;2023-09-19T09:00:14;10.20;;;5.03;;
82806;SDS011;72563;44.816;20.484;2023-09-19T09:02:42;13.02;;;5.60;;
82806;SDS011;72563;44.816;20.484;2023-09-19T09:05:09;12.95;;;5.38;;
82806;SDS011;72563;44.816;20.484;2023-09-19T09:10:05;10.02;;;5.38;;
82806;SDS011;72563;44.816;20.484;2023-09-19T09:12:32;9.52;;;5.10;;
82806;SDS011;72563;44.816;20.484;2023-09-19T09:14:59;12.57;;;5.35;;
82806;SDS011;72563;44.816;20.484;2023-09-19T09:17:26;9.75;;;4.65;;
82806;SDS011;72563;44.816;20.484;2023-09-19T09:19:52;13.48;;;5.75;;
82806;SDS011;72563;44.816;20.484;2023-09-19T09:22:18;11.20;;;5.32;;
82806;SDS011;72563;44.816;20.484;2023-09-19T09:27:28;9.90;;;5.25;;
82806;SDS011;72563;44.816;20.484;2023-09-19T09:29:54;9.93;;;5.15;;
82806;SDS011;72563;44.816;20.484;2023-09-19T09:34:52;10.70;;;5.30;;
82806;SDS011;72563;44.816;20.484;2023-09-19T09:37:19;12.18;;;5.18;;
82806;SDS011;72563;44.816;20.484;2023-09-19T09:39:55;9.90;;;5.40;;
82806;SDS011;72563;44.816;20.484;2023-09-19T09:42:33;12.30;;;5.07;;
82806;SDS011;72563;44.816;20.484;2023-09-19T09:45:19;10.77;;;5.15;;
82806;SDS011;72563;44.816;20.484;2023-09-19T09:47:58;10.18;;;5.07;;
82806;SDS011;72563;44.816;20.484;2023-09-19T09:50:26;10.90;;;5.00;;
82806;SDS011;72563;44.816;20.484;2023-09-19T09:58:35;10.45;;;5.22;;
82806;SDS011;72563;44.816;20.484;2023-09-19T10:01:02;10.77;;;5.15;;
82806;SDS011;72563;44.816;20.484;2023-09-19T10:03:40;12.27;;;5.13;;
82806;SDS011;72563;44.816;20.484;2023-09-19T10:06:09;12.70;;;5.10;;
82806;SDS011;72563;44.816;20.484;2023-09-19T10:08:57;10.02;;;5.15;;
82806;SDS011;72563;44.816;20.484;2023-09-19T10:14:08;12.70;;;5.35;;
82806;SDS011;72563;44.816;20.484;2023-09-19T10:16:39;11.05;;;5.28;;
82806;SDS011;72563;44.816;20.484;2023-09-19T10:19:10;12.85;;;5.35;;
82806;SDS011;72563;44.816;20.484;2023-09-19T10:21:47;10.48;;;5.10;;
82806;SDS011;72563;44.816;20.484;2023-09-19T10:24:15;10.30;;;5.40;;
82806;SDS011;72563;44.816;20.484;2023-09-19T10:26:42;13.27;;;6.28;;
82806;SDS011;72563;44.816;20.484;2023-09-19T10:29:10;13.13;;;5.35;;
82806;SDS011;72563;44.816;20.484;2023-09-19T10:31:41;10.35;;;5.65;;
82806;SDS011;72563;44.816;20.484;2023-09-19T10:34:12;14.07;;;5.82;;
82806;SDS011;72563;44.816;20.484;2023-09-19T10:36:40;11.93;;;5.68;;
82806;SDS011;72563;44.816;20.484;2023-09-19T10:39:10;11.18;;;5.30;;
82806;SDS011;72563;44.816;20.484;2023-09-19T10:41:38;12.30;;;6.32;;
82806;SDS011;72563;44.816;20.484;2023-09-19T10:44:05;10.98;;;5.47;;
82806;SDS011;72563;44.816;20.484;2023-09-19T10:46:34;9.65;;;5.25;;
82806;SDS011;72563;44.816;20.484;2023-09-19T10:49:00;11.85;;;5.80;;
82806;SDS011;72563;44.816;20.484;2023-09-19T10:51:28;13.40;;;5.80;;
82806;SDS011;72563;44.816;20.484;2023-09-19T10:54:08;10.27;;;5.55;;
82806;SDS011;72563;44.816;20.484;2023-09-19T10:56:38;17.35;;;5.95;;
82806;SDS011;72563;44.816;20.484;2023-09-19T10:59:10;14.38;;;5.90;;
82806;SDS011;72563;44.816;20.484;2023-09-19T11:04:42;13.60;;;5.75;;
82806;SDS011;72563;44.816;20.484;2023-09-19T11:07:09;13.77;;;5.28;;
82806;SDS011;72563;44.816;20.484;2023-09-19T11:14:56;13.52;;;4.90;;
82806;SDS011;72563;44.816;20.484;2023-09-19T11:30:46;13.73;;;5.82;;
82806;SDS011;72563;44.816;20.484;2023-09-19T11:33:19;18.27;;;6.63;;
82806;SDS011;72563;44.816;20.484;2023-09-19T11:36:09;13.15;;;6.25;;
82806;SDS011;72563;44.816;20.484;2023-09-19T11:46:26;12.25;;;6.15;;
82806;SDS011;72563;44.816;20.484;2023-09-19T11:48:53;11.13;;;5.90;;
82806;SDS011;72563;44.816;20.484;2023-09-19T11:51:21;13.63;;;6.50;;
82806;SDS011;72563;44.816;20.484;2023-09-19T11:53:49;13.77;;;6.18;;
82806;SDS011;72563;44.816;20.484;2023-09-19T11:56:16;14.27;;;6.07;;
82806;SDS011;72563;44.816;20.484;2023-09-19T11:58:46;11.80;;;6.38;;
82806;SDS011;72563;44.816;20.484;2023-09-19T12:01:14;11.95;;;5.85;;
82806;SDS011;72563;44.816;20.484;2023-09-19T12:03:46;14.65;;;5.90;;
82806;SDS011;72563;44.816;20.484;2023-09-19T12:06:15;12.48;;;6.10;;
82806;SDS011;72563;44.816;20.484;2023-09-19T12:08:42;13.90;;;6.25;;
82806;SDS011;72563;44.816;20.484;2023-09-19T12:11:17;12.93;;;5.68;;
82806;SDS011;72563;44.816;20.484;2023-09-19T12:13:45;11.13;;;6.40;;
82806;SDS011;72563;44.816;20.484;2023-09-19T12:16:17;13.10;;;6.85;;
82806;SDS011;72563;44.816;20.484;2023-09-19T12:18:47;10.18;;;6.47;;
82806;SDS011;72563;44.816;20.484;2023-09-19T12:21:23;13.05;;;6.50;;
82806;SDS011;72563;44.816;20.484;2023-09-19T12:26:29;14.77;;;6.65;;
82806;SDS011;72563;44.816;20.484;2023-09-19T12:28:59;10.18;;;5.95;;
82806;SDS011;72563;44.816;20.484;2023-09-19T12:31:26;11.85;;;5.45;;
82806;SDS011;72563;44.816;20.484;2023-09-19T12:33:55;12.43;;;6.32;;
82806;SDS011;72563;44.816;20.484;2023-09-19T12:36:22;10.50;;;5.47;;
82806;SDS011;72563;44.816;20.484;2023-09-19T12:38:55;13.65;;;6.38;;
82806;SDS011;72563;44.816;20.484;2023-09-19T12:41:21;13.55;;;6.32;;
82806;SDS011;72563;44.816;20.484;2023-09-19T12:43:51;12.73;;;6.40;;
82806;SDS011;72563;44.816;20.484;2023-09-19T12:46:21;11.10;;;5.85;;
82806;SDS011;72563;44.816;20.484;2023-09-19T12:51:47;13.00;;;6.63;;
82806;SDS011;72563;44.816;20.484;2023-09-19T12:54:13;13.63;;;6.72;;
82806;SDS011;72563;44.816;20.484;2023-09-19T12:56:41;13.02;;;6.43;;
82806;SDS011;72563;44.816;20.484;2023-09-19T12:59:13;14.23;;;6.88;;
82806;SDS011;72563;44.816;20.484;2023-09-19T13:01:39;11.63;;;6.43;;
82806;SDS011;72563;44.816;20.484;2023-09-19T13:06:40;11.43;;;6.20;;
82806;SDS011;72563;44.816;20.484;2023-09-19T13:09:08;12.40;;;6.25;;
82806;SDS011;72563;44.816;20.484;2023-09-19T13:11:38;12.55;;;6.43;;
82806;SDS011;72563;44.816;20.484;2023-09-19T13:17:06;17.33;;;6.40;;
82806;SDS011;72563;44.816;20.484;2023-09-19T13:25:09;13.07;;;5.78;;
82806;SDS011;72563;44.816;20.484;2023-09-19T13:27:43;14.98;;;6.53;;
82806;SDS011;72563;44.816;20.484;2023-09-19T13:30:10;13.73;;;6.40;;
82806;SDS011;72563;44.816;20.484;2023-09-19T13:32:39;11.27;;;6.43;;
82806;SDS011;72563;44.816;20.484;2023-09-19T13:35:06;16.08;;;6.35;;
82806;SDS011;72563;44.816;20.484;2023-09-19T13:37:35;11.40;;;5.85;;
82806;SDS011;72563;44.816;20.484;2023-09-19T13:40:07;13.15;;;6.05;;
82806;SDS011;72563;44.816;20.484;2023-09-19T13:42:33;12.43;;;6.00;;
82806;SDS011;72563;44.816;20.484;2023-09-19T13:44:59;11.13;;;6.25;;
82806;SDS011;72563;44.816;20.484;2023-09-19T13:47:26;13.90;;;6.18;;
82806;SDS011;72563;44.816;20.484;2023-09-19T13:49:52;15.50;;;6.20;;
82806;SDS011;72563;44.816;20.484;2023-09-19T13:52:20;12.38;;;5.97;;
82806;SDS011;72563;44.816;20.484;2023-09-19T13:54:48;11.77;;;6.20;;
82806;SDS011;72563;44.816;20.484;2023-09-19T13:57:15;16.63;;;6.63;;
82806;SDS011;72563;44.816;20.484;2023-09-19T13:59:41;15.50;;;6.93;;
82806;SDS011;72563;44.816;20.484;2023-09-19T14:02:07;11.30;;;6.22;;
82806;SDS011;72563;44.816;20.484;2023-09-19T14:04:32;12.18;;;6.72;;
82806;SDS011;72563;44.816;20.484;2023-09-19T14:06:59;13.20;;;7.10;;
82806;SDS011;72563;44.816;20.484;2023-09-19T14:09:26;16.20;;;7.22;;
82806;SDS011;72563;44.816;20.484;2023-09-19T14:11:52;13.98;;;6.72;;
82806;SDS011;72563;44.816;20.484;2023-09-19T14:14:18;14.07;;;7.53;;
82806;SDS011;72563;44.816;20.484;2023-09-19T14:16:45;12.90;;;6.82;;
82806;SDS011;72563;44.816;20.484;2023-09-19T14:19:11;15.27;;;7.20;;
82806;SDS011;72563;44.816;20.484;2023-09-19T14:21:36;15.43;;;7.38;;
82806;SDS011;72563;44.816;20.484;2023-09-19T14:24:04;13.98;;;7.35;;
82806;SDS011;72563;44.816;20.484;2023-09-19T14:26:31;14.95;;;7.97;;
82806;SDS011;72563;44.816;20.484;2023-09-19T14:28:56;16.48;;;7.28;;
82806;SDS011;72563;44.816;20.484;2023-09-19T14:31:22;14.93;;;7.00;;
82806;SDS011;72563;44.816;20.484;2023-09-19T14:33:52;14.43;;;6.43;;
82806;SDS011;72563;44.816;20.484;2023-09-19T14:36:21;16.23;;;6.97;;
82806;SDS011;72563;44.816;20.484;2023-09-19T14:38:47;13.10;;;6.55;;
82806;SDS011;72563;44.816;20.484;2023-09-19T14:41:13;15.75;;;5.93;;
82806;SDS011;72563;44.816;20.484;2023-09-19T14:43:38;17.05;;;5.57;;
82806;SDS011;72563;44.816;20.484;2023-09-19T14:46:04;12.90;;;5.97;;
82806;SDS011;72563;44.816;20.484;2023-09-19T14:48:32;15.10;;;5.90;;
82806;SDS011;72563;44.816;20.484;2023-09-19T14:51:02;13.98;;;5.43;;
82806;SDS011;72563;44.816;20.484;2023-09-19T14:53:29;14.30;;;5.70;;
82806;SDS011;72563;44.816;20.484;2023-09-19T14:55:55;13.90;;;5.88;;
82806;SDS011;72563;44.816;20.484;2023-09-19T14:58:21;16.20;;;5.00;;
82806;SDS011;72563;44.816;20.484;2023-09-19T15:00:47;12.68;;;4.22;;
82806;SDS011;72563;44.816;20.484;2023-09-19T15:03:12;15.48;;;4.95;;
82806;SDS011;72563;44.816;20.484;2023-09-19T15:05:38;15.52;;;4.90;;
82806;SDS011;72563;44.816;20.484;2023-09-19T15:08:04;15.80;;;4.38;;
82806;SDS011;72563;44.816;20.484;2023-09-19T15:10:31;17.08;;;4.68;;
82806;SDS011;72563;44.816;20.484;2023-09-19T15:12:56;12.43;;;5.07;;
82806;SDS011;72563;44.816;20.484;2023-09-19T15:15:22;20.55;;;6.25;;
82806;SDS011;72563;44.816;20.484;2023-09-19T15:17:47;10.65;;;5.43;;
82806;SDS011;72563;44.816;20.484;2023-09-19T15:20:13;21.88;;;9.52;;
82806;SDS011;72563;44.816;20.484;2023-09-19T15:22:39;19.33;;;7.72;;
82806;SDS011;72563;44.816;20.484;2023-09-19T15:25:05;15.23;;;7.13;;
82806;SDS011;72563;44.816;20.484;2023-09-19T15:27:31;14.18;;;5.05;;
82806;SDS011;72563;44.816;20.484;2023-09-19T15:29:58;16.88;;;5.70;;
82806;SDS011;72563;44.816;20.484;2023-09-19T15:32:25;13.32;;;6.38;;
82806;SDS011;72563;44.816;20.484;2023-09-19T15:34:51;17.70;;;5.78;;
82806;SDS011;72563;44.816;20.484;2023-09-19T15:37:17;14.77;;;6.10;;
82806;SDS011;72563;44.816;20.484;2023-09-19T15:39:42;13.35;;;5.95;;
82806;SDS011;72563;44.816;20.484;2023-09-19T15:42:10;19.27;;;6.20;;
82806;SDS011;72563;44.816;20.484;2023-09-19T15:44:36;12.95;;;5.13;;
82806;SDS011;72563;44.816;20.484;2023-09-19T15:47:02;14.20;;;5.50;;
82806;SDS011;72563;44.816;20.484;2023-09-19T15:49:28;14.15;;;5.75;;
82806;SDS011;72563;44.816;20.484;2023-09-19T15:51:53;14.35;;;5.07;;
82806;SDS011;72563;44.816;20.484;2023-09-19T15:54:19;14.90;;;6.40;;
82806;SDS011;72563;44.816;20.484;2023-09-19T15:56:45;11.82;;;5.78;;
82806;SDS011;72563;44.816;20.484;2023-09-19T15:59:12;12.82;;;6.07;;
82806;SDS011;72563;44.816;20.484;2023-09-19T16:01:38;16.52;;;5.50;;